Latest Coastal Weather Observations for Evans Head

IDN60701

Issued at 11:01 pm EDT Tuesday 28 February 2017 (issued every 10 minutes, with the page automatically refreshed every 10 minutes)

About coastal observations | Map of coastal stations | Coastal observations for NSW | Marine services | Other Formats
Station Details ID: 058212 Name: EVANS HEAD RAAF BOMBING RANGE AWS Lat: -29.18 Lon: 153.40 Height: 62.5 m
Data from the previous 72 hours. | See also: Recent months at Evans Head
Date/Time
EDT
Temp
°C
Wind Pressure Rain since
9am
mm
Weather Cloud Vis
km
Sea
Height
m
Swell
Dir  Spd
kts
Gust
kts
hPa Trend Height
m
Period
s
Dir
28/10:30pm 19.4 SW 6 9 1018.4 - 26.6 - - - - - - -
28/10:00pm 19.4 WSW 7 8 1018.6 - 26.6 - - - - - - -
28/09:30pm 19.4 SW 7 9 1018.6 - 26.6 - - - - - - -
28/09:00pm 19.7 SW 7 9 1018.5 - 26.6 - - - - - - -
28/08:30pm 19.7 SW 6 9 1018.2 - 26.6 - - - - - - -
28/08:00pm 19.8 SW 6 8 1017.9 - 26.6 - - - - - - -
28/07:30pm 20.0 SW 6 8 1017.5 - 26.6 - - - - - - -
28/07:00pm 20.5 SSW 6 9 1017.2 - 26.6 - - - - - - -
28/06:30pm 21.0 SSW 6 8 1017.2 - 26.6 - - - - - - -
28/06:00pm 21.3 SSW 7 9 1017.0 - 26.6 - - - - - - -
28/05:30pm 22.0 SSW 7 11 1017.0 - 26.6 - - - - - - -
28/05:00pm 22.0 S 10 14 1017.0 - 26.6 - - - - - - -
28/04:30pm 22.6 S 9 11 1017.1 - 26.6 - - - - - - -
28/04:00pm 23.0 S 10 14 1016.7 - 26.6 - - - - - - -
28/03:30pm 23.9 S 9 12 1016.8 - 26.6 - - - - - - -
28/03:00pm 23.0 S 8 11 1016.9 - 26.6 - - - - - - -
28/02:30pm 22.2 S 9 11 1016.9 - 26.6 - - - - - - -
28/02:00pm 21.5 S 11 14 1017.1 - 26.6 - - - - - - -
28/01:30pm 21.0 S 9 13 1017.6 - 26.6 - - - - - - -
28/01:00pm 20.4 S 11 15 1017.6 - 23.4 - - - - - - -
28/12:30pm 21.8 S 9 15 1017.9 - 1.0 - - - - - - -
28/12:00pm 22.4 SSE 11 14 1017.7 - 0.4 - - - - - - -
28/11:30am 21.8 SE 10 16 1017.8 - 0.4 - - - - - - -
28/11:00am 21.4 SE 9 14 1018.3 - 0.4 - - - - - - -
28/10:30am 21.6 ESE 12 17 1018.3 - 0.2 - - - - - - -
28/10:00am 21.1 SE 10 14 1017.8 - 0.2 - - - - - - -
28/09:30am 21.0 ESE 11 16 1017.6 - 0.2 - - - - - - -
28/09:00am 20.9 ESE 13 18 1017.5 - 60.4 Recent precip. - - - - - -
28/08:30am 20.9 ESE 15 20 1017.4 - 60.0 - - - - - - -
28/08:00am 20.7 ESE 14 21 1017.3 - 60.0 - - - - - - -
28/07:30am 20.2 E 15 23 1017.1 - 59.6 - - - - - - -
28/07:00am 20.0 SE 15 22 1016.6 - 59.4 - - - - - - -
28/06:30am 20.4 SE 16 23 1016.3 - 56.2 - - - - - - -
28/06:00am 19.8 ESE 17 23 1016.5 - 56.2 Rain - - - - - -
28/05:30am 19.5 ESE 14 22 1016.5 - 53.4 - - - - - - -
28/05:00am 20.1 ESE 17 27 1016.7 - 48.6 - - - - - - -
28/04:51am 19.6 ESE 17 27 1016.5 - 47.2 - - - - - - -
28/04:30am 20.8 SSE 14 19 1016.2 - 44.0 - - - - - - -
28/04:00am 20.1 SE 13 18 1016.5 - 43.6 - - - - - - -
28/03:30am 19.9 ESE 13 18 1017.1 - 43.4 - - - - - - -
28/03:00am 18.8 S 7 11 1017.3 - 41.6 Rain - - - - - -
28/02:30am 19.1 S 8 11 1017.8 - 40.2 - - - - - - -
28/02:00am 19.0 S 5 9 1018.2 - 35.0 - - - - - - -
28/01:30am 18.6 SSW 7 11 1018.5 - 30.8 - - - - - - -
28/01:00am 18.3 SW 5 8 1018.8 - 24.8 - - - - - - -
28/12:30am 18.4 SSW 8 10 1019.1 - 22.0 - - - - - - -
28/12:00am 18.4 SSW 7 9 1019.3 - 20.8 Rain - - - - - -
 
Date/Time
EDT
Temp
°C
Wind Pressure Rain since
9am
mm
Weather Cloud Vis
km
Sea
Height
m
Swell
Dir  Spd
kts
Gust
kts
hPa Trend Height
m
Period
s
Dir
27/11:30pm 18.4 SW 7 10 1018.8 - 20.0 - - - - - - -
27/11:00pm 18.6 SW 9 12 1018.9 - 20.0 - - - - - - -
27/10:30pm 18.4 SW 9 13 1019.4 - 20.0 - - - - - - -
27/10:00pm 18.3 SW 9 11 1019.5 - 20.0 - - - - - - -
27/09:30pm 18.5 WSW 7 10 1019.6 - 20.0 - - - - - - -
27/09:00pm 18.6 SW 7 9 1019.8 - 19.8 Rain - - - - - -
27/08:30pm 19.8 SSE 4 8 1019.3 - 19.4 - - - - - - -
27/08:00pm 19.6 E 8 13 1018.8 - 18.8 - - - - - - -
27/07:30pm 18.7 E 15 21 1018.7 - 16.8 - - - - - - -
27/07:07pm 20.1 SE 19 27 1018.4 - 5.6 - - - - - - -
27/07:00pm 21.0 SSE 18 25 1017.8 - 4.2 - - - - - - -
27/06:30pm 22.6 S 13 19 1017.5 - 1.8 - - - - - - -
27/06:00pm 22.7 SSE 14 22 1017.8 - 1.8 - - - - - - -
27/05:30pm 22.4 S 9 15 1017.6 - 1.8 - - - - - - -
27/05:00pm 22.8 S 12 16 1017.7 - 1.8 - - - - - - -
27/04:30pm 22.6 S 10 15 1017.7 - 1.8 - - - - - - -
27/04:00pm 22.9 S 8 11 1018.0 - 1.8 - - - - - - -
27/03:30pm 22.6 S 7 11 1018.2 - 1.8 - - - - - - -
27/03:00pm 22.1 S 9 12 1018.3 - 1.8 - - - - - - -
27/02:30pm 22.1 S 9 14 1018.4 - 1.8 - - - - - - -
27/02:00pm 21.6 S 11 15 1018.9 - 1.8 - - - - - - -
27/01:30pm 21.8 S 11 15 1019.3 - 1.8 - - - - - - -
27/01:00pm 21.8 SSE 12 17 1019.4 - 1.8 - - - - - - -
27/12:30pm 22.2 S 11 15 1019.2 - 1.8 - - - - - - -
27/12:00pm 22.1 S 8 12 1019.5 - 1.8 - - - - - - -
27/11:30am 20.6 SSW 7 11 1019.8 - 1.8 - - - - - - -
27/11:00am 19.8 SSW 7 11 1019.9 - 1.8 - - - - - - -
27/10:30am 20.0 SW 4 6 1019.7 - 1.8 - - - - - - -
27/10:00am 19.4 SSW 7 10 1019.8 - 1.6 - - - - - - -
27/09:30am 18.9 SSW 8 11 1019.8 - 1.0 - - - - - - -
27/09:00am 18.6 S 7 11 1019.5 - 108.0 Rain - - - - - -
27/08:30am 18.4 SW 5 7 1018.9 - 106.8 - - - - - - -
27/08:00am 18.1 E 3 7 1019.0 - 105.2 - - - - - - -
27/07:30am 17.8 SSW 6 11 1018.8 - 97.4 - - - - - - -
27/07:00am 18.6 ENE 8 17 1018.5 - 58.8 - - - - - - -
27/06:30am 18.5 SW 11 19 1017.7 - 46.4 - - - - - - -
27/06:00am 18.8 SW 7 10 1017.4 - 36.0 Recent precip. - - - - - -
27/05:30am 19.0 SW 6 9 1017.1 - 36.0 - - - - - - -
27/05:00am 19.0 SSW 7 11 1016.9 - 35.4 - - - - - - -
27/04:30am 18.8 W 5 7 1017.0 - 19.2 - - - - - - -
27/04:00am 18.9 SSW 9 15 1016.9 - 13.4 - - - - - - -
27/03:30am 18.7 SSW 10 14 1017.1 - 13.4 - - - - - - -
27/03:00am 18.8 SSW 9 13 1016.9 - 13.4 Recent precip. - - - - - -
27/02:30am 18.9 SSW 10 13 1017.4 - 13.4 - - - - - - -
27/02:00am 19.1 SSW 10 14 1017.7 - 13.2 - - - - - - -
27/01:30am 19.4 S 9 16 1017.7 - 13.0 - - - - - - -
27/01:00am 19.4 SSW 11 15 1018.3 - 12.6 - - - - - - -
27/12:30am 19.2 SSW 9 13 1018.7 - 9.6 - - - - - - -
27/12:00am 19.3 SSW 12 16 1018.2 - 9.0 Rain - - - - - -
 
Date/Time
EDT
Temp
°C
Wind Pressure Rain since
9am
mm
Weather Cloud Vis
km
Sea
Height
m
Swell
Dir  Spd
kts
Gust
kts
hPa Trend Height
m
Period
s
Dir
26/11:30pm 18.6 SSE 15 28 1018.6 - 2.6 - - - - - - -
26/11:29pm 18.9 S 13 27 1018.6 - 1.8 - - - - - - -
26/11:00pm 20.2 SSW 10 17 1018.3 - 0.0 - - - - - - -
26/10:30pm 20.8 SSW 8 13 1018.5 - 0.0 - - - - - - -
26/10:00pm 21.0 SSW 8 13 1018.5 - 0.0 - - - - - - -
26/09:30pm 22.0 SSW 11 15 1018.2 - 0.0 - - - - - - -
26/09:00pm 23.3 SSE 16 22 1017.8 - 0.0 - - - - - - -
26/08:30pm 23.0 SSE 15 22 1017.8 - 0.0 - - - - - - -
26/08:00pm 22.8 S 15 21 1017.6 - 0.0 - - - - - - -
26/07:30pm 23.3 SSE 16 23 1017.4 - 0.0 - - - - - - -
26/07:00pm 23.1 SSE 16 25 1017.2 - 0.0 - - - - - - -
26/06:54pm 23.0 SSE 16 26 1017.1 - 0.0 - - - - - - -
26/06:30pm 23.5 SSE 16 22 1016.9 - 0.0 - - - - - - -
26/06:08pm 24.0 SSE 17 30 1016.8 - 0.0 - - - - - - -
26/06:00pm 24.5 SSE 18 26 1016.9 - 0.0 - - - - - - -
26/05:30pm 24.7 SSE 16 22 1016.7 - 0.0 - - - - - - -
26/05:00pm 25.8 SSE 18 27 1016.5 - 0.0 - - - - - - -
26/04:30pm 25.4 SSE 17 24 1016.2 - 0.0 - - - - - - -
26/04:21pm 25.9 SSE 18 28 1016.2 - 0.0 - - - - - - -
26/04:00pm 26.5 SSE 18 25 1016.1 - 0.0 - - - - - - -
26/03:30pm 25.3 SSE 19 26 1016.4 - 0.0 - - - - - - -
26/03:20pm 25.6 SSE 17 29 1016.3 - 0.0 - - - - - - -
26/03:00pm 27.2 SSE 14 18 1016.5 - 0.0 - - - - - - -
26/02:30pm 27.1 SSE 10 16 1016.7 - 0.0 - - - - - - -
26/02:00pm 27.2 SSE 13 17 1016.9 - 0.0 - - - - - - -
26/01:30pm 26.8 SSE 11 14 1017.3 - 0.0 - - - - - - -
26/01:00pm 26.7 SSE 13 18 1017.5 - 0.0 - - - - - - -
26/12:30pm 26.0 SSE 14 19 1017.7 - 0.0 - - - - - - -
26/12:00pm 26.6 SSE 15 20 1017.6 - 0.0 - - - - - - -
26/11:30am 26.7 SSE 14 20 1017.7 - 0.0 - - - - - - -
26/11:00am 26.9 SSE 13 17 1017.7 - 0.0 - - - - - - -
26/10:30am 28.2 SSE 12 17 1017.5 - 0.0 - - - - - - -
26/10:00am 27.4 SE 13 17 1017.4 - 0.0 - - - - - - -
26/09:30am 26.0 SE 13 18 1017.3 - 0.0 - - - - - - -
26/09:00am 22.6 S 7 11 1017.0 - 0.0 - - - - - - -
26/08:30am 21.6 SSW 7 10 1016.7 - 0.0 - - - - - - -
26/08:00am 20.9 SW 7 13 1016.5 - 0.0 - - - - - - -
26/07:30am 20.3 SW 6 10 1015.9 - 0.0 - - - - - - -
26/07:00am 20.3 SSW 9 14 1015.6 - 0.0 - - - - - - -
26/06:30am 20.0 SW 7 9 1015.4 - 0.0 - - - - - - -
26/06:00am 20.3 SSW 7 9 1015.0 - 0.0 - - - - - - -
26/05:30am 20.4 SW 6 8 1014.8 - 0.0 - - - - - - -
26/05:00am 20.6 SW 7 9 1014.7 - 0.0 - - - - - - -
26/04:30am 20.7 WSW 6 8 1014.8 - 0.0 - - - - - - -
26/04:00am 22.4 SSE 8 12 1014.8 - 0.0 - - - - - - -
26/03:30am 22.9 SE 10 14 1014.7 - 0.0 - - - - - - -
26/03:00am 22.9 SE 10 15 1014.9 - 0.0 - - - - - - -
26/02:30am 23.0 SE 11 16 1015.1 - 0.0 - - - - - - -
26/02:00am 23.0 SE 11 15 1015.5 - 0.0 - - - - - - -
26/01:30am 22.9 SE 11 15 1015.9 - 0.0 - - - - - - -
26/01:00am 23.0 SE 11 15 1016.3 - 0.0 - - - - - - -
26/12:30am 23.1 SE 11 15 1016.9 - 0.0 - - - - - - -
26/12:00am 23.2 SSE 11 16 1016.9 - 0.0 - - - - - - -
 
Date/Time
EDT
Temp
°C
Wind Pressure Rain since
9am
mm
Weather Cloud Vis
km
Sea
Height
m
Swell
Dir  Spd
kts
Gust
kts
hPa Trend Height
m
Period
s
Dir
25/11:30pm 23.2 SSE 10 13 1017.1 - 0.0 - - - - - - -

Other Formats:

Comma delimited format used in spreadsheet applications
http://www.bom.gov.au/fwo/IDN60701/IDN60701.94598.axf

JavaScript Object Notation format (JSON) in row-major order
http://www.bom.gov.au/fwo/IDN60701/IDN60701.94598.json